createdAt,value
2018-08-23T00:01:28.769Z,7.83
2018-08-23T00:03:59.755Z,5.30
2018-08-23T00:06:28.669Z,7.30
2018-08-23T00:08:58.679Z,6.57
2018-08-23T00:11:29.295Z,7.67
2018-08-23T00:13:58.082Z,8.77
2018-08-23T00:16:38.473Z,7.23
2018-08-23T00:19:07.472Z,8.37
2018-08-23T00:21:44.906Z,6.80
2018-08-23T00:24:15.527Z,6.43
2018-08-23T00:26:51.181Z,6.73
2018-08-23T00:29:25.875Z,6.60
2018-08-23T00:31:59.387Z,10.20
2018-08-23T00:34:30.244Z,7.83
2018-08-23T00:36:59.459Z,12.37
2018-08-23T00:39:29.251Z,6.83
2018-08-23T00:42:03.287Z,11.07
2018-08-23T00:44:41.988Z,8.03
2018-08-23T00:47:11.162Z,7.57
2018-08-23T00:49:40.055Z,7.43
2018-08-23T00:52:08.872Z,7.90
2018-08-23T00:54:37.932Z,13.37
2018-08-23T00:57:07.133Z,9.17
2018-08-23T00:59:35.919Z,7.17
2018-08-23T01:02:07.958Z,9.07
2018-08-23T01:04:43.977Z,6.10
2018-08-23T01:07:19.767Z,9.47
2018-08-23T01:09:48.518Z,5.50
2018-08-23T01:12:19.462Z,7.80
2018-08-23T01:14:49.776Z,7.47
2018-08-23T01:17:19.437Z,7.47
2018-08-23T01:19:57.560Z,7.63
2018-08-23T01:22:26.331Z,7.90
2018-08-23T01:24:55.052Z,7.30
2018-08-23T01:27:28.917Z,9.07
2018-08-23T01:29:57.834Z,8.90
2018-08-23T01:32:31.660Z,7.10
2018-08-23T01:35:00.467Z,6.10
2018-08-23T01:37:40.532Z,7.93
2018-08-23T01:40:11.036Z,6.73
2018-08-23T01:42:41.286Z,13.57
2018-08-23T01:45:11.620Z,7.43
2018-08-23T01:47:45.519Z,8.33
2018-08-23T01:50:15.249Z,10.00
2018-08-23T01:52:51.766Z,12.60
2018-08-23T01:55:21.455Z,7.60
2018-08-23T01:57:50.659Z,7.33
2018-08-23T02:00:23.490Z,7.50
2018-08-23T02:02:52.422Z,8.67
2018-08-23T02:05:21.551Z,13.53
2018-08-23T02:07:50.397Z,11.07
2018-08-23T02:10:19.438Z,14.77
2018-08-23T02:12:50.156Z,9.37
2018-08-23T02:15:19.372Z,10.97
2018-08-23T02:17:54.228Z,13.17
2018-08-23T02:20:23.943Z,13.33
2018-08-23T02:22:53.155Z,10.97
2018-08-23T02:25:22.321Z,14.37
2018-08-23T02:28:07.286Z,6.87
2018-08-23T02:30:51.583Z,11.33
2018-08-23T02:33:20.387Z,8.40
2018-08-23T02:36:28.763Z,7.80
2018-08-23T02:38:59.250Z,9.37
2018-08-23T02:41:28.462Z,11.23
2018-08-23T02:43:57.154Z,11.63
2018-08-23T02:46:26.178Z,9.80
2018-08-23T02:48:55.121Z,10.60
2018-08-23T02:51:36.960Z,9.40
2018-08-23T02:54:06.117Z,14.73
2018-08-23T02:56:35.124Z,10.80
2018-08-23T02:59:06.948Z,16.40
2018-08-23T03:01:39.235Z,20.43
2018-08-23T03:04:10.221Z,9.90
2018-08-23T03:07:12.708Z,10.83
2018-08-23T03:09:44.519Z,14.17
2018-08-23T03:12:18.188Z,7.90
2018-08-23T03:14:47.708Z,9.57
2018-08-23T03:17:19.593Z,10.57
2018-08-23T03:19:59.186Z,9.43
2018-08-23T03:22:28.603Z,12.70
2018-08-23T03:24:59.042Z,10.13
2018-08-23T03:27:28.688Z,12.27
2018-08-23T03:29:57.566Z,11.23
2018-08-23T03:32:26.316Z,12.07
2018-08-23T03:34:55.327Z,8.43
2018-08-23T03:37:24.140Z,17.47
2018-08-23T03:39:52.935Z,11.10
2018-08-23T03:42:21.952Z,13.10
2018-08-23T03:44:52.502Z,11.53
2018-08-23T03:47:21.674Z,10.47
2018-08-23T03:49:51.014Z,15.20
2018-08-23T03:52:23.193Z,11.77
2018-08-23T03:54:56.842Z,11.67
2018-08-23T03:57:30.924Z,15.27
2018-08-23T03:59:59.891Z,10.33
2018-08-23T04:02:28.994Z,12.77
2018-08-23T04:05:06.486Z,16.87
2018-08-23T04:07:35.506Z,12.40
2018-08-23T04:10:04.611Z,16.93
2018-08-23T04:12:33.679Z,12.93
2018-08-23T04:15:15.737Z,17.73
2018-08-23T04:17:44.923Z,19.73
2018-08-23T04:20:13.787Z,14.27
2018-08-23T04:22:42.602Z,13.17
2018-08-23T04:25:11.346Z,18.83
2018-08-23T04:27:40.126Z,20.73
2018-08-23T04:30:09.922Z,24.30
2018-08-23T04:32:48.050Z,14.20
2018-08-23T04:35:34.763Z,18.27
2018-08-23T04:38:03.847Z,26.30
2018-08-23T04:40:32.621Z,13.67
2018-08-23T04:43:01.423Z,15.90
2018-08-23T04:45:31.687Z,13.10
2018-08-23T04:48:07.309Z,17.07
2018-08-23T04:50:37.214Z,20.60
2018-08-23T04:53:06.452Z,14.83
2018-08-23T04:55:35.679Z,23.57
2018-08-23T04:58:05.224Z,17.47
2018-08-23T05:00:34.168Z,21.13
2018-08-23T05:03:03.244Z,13.93
2018-08-23T05:05:32.548Z,21.33
2018-08-23T05:08:01.240Z,28.53
2018-08-23T05:10:30.040Z,31.40
2018-08-23T05:12:58.861Z,34.63
2018-08-23T05:15:27.561Z,22.97
2018-08-23T05:17:56.218Z,20.43
2018-08-23T05:20:25.269Z,11.80
2018-08-23T05:23:02.141Z,16.97
2018-08-23T05:25:31.277Z,19.47
2018-08-23T05:28:12.744Z,14.67
2018-08-23T05:30:43.574Z,17.07
2018-08-23T05:33:14.178Z,26.33
2018-08-23T05:35:43.181Z,16.87
2018-08-23T05:38:12.927Z,11.33
2018-08-23T05:40:44.710Z,11.00
2018-08-23T05:43:14.751Z,12.30
2018-08-23T05:45:50.724Z,16.43
2018-08-23T05:48:32.521Z,18.07
2018-08-23T05:51:05.258Z,16.77
2018-08-23T05:53:38.490Z,14.37
2018-08-23T05:56:07.913Z,12.37
2018-08-23T05:58:37.039Z,16.97
2018-08-23T06:01:06.045Z,26.17
2018-08-23T06:03:36.128Z,25.03
2018-08-23T06:06:05.011Z,13.10
2018-08-23T06:08:33.975Z,17.50
2018-08-23T06:11:09.890Z,24.50
2018-08-23T06:13:39.324Z,13.20
2018-08-23T06:16:08.178Z,11.97
2018-08-23T06:18:37.133Z,11.97
2018-08-23T06:21:05.862Z,16.20
2018-08-23T06:24:03.031Z,12.83
2018-08-23T06:26:45.228Z,25.93
2018-08-23T06:29:17.215Z,10.83
2018-08-23T06:32:09.048Z,20.27
2018-08-23T06:34:42.071Z,11.40
2018-08-23T06:37:10.846Z,24.00
2018-08-23T06:39:41.986Z,13.63
2018-08-23T06:42:10.845Z,17.37
2018-08-23T06:44:45.086Z,21.87
2018-08-23T06:47:16.215Z,19.83
2018-08-23T06:49:46.366Z,11.40
2018-08-23T06:52:38.570Z,10.10
2018-08-23T06:55:08.811Z,12.90
2018-08-23T06:57:43.057Z,22.03
2018-08-23T07:00:12.466Z,20.23
2018-08-23T07:02:46.529Z,18.23
2018-08-23T07:05:15.738Z,13.67
2018-08-23T07:07:44.680Z,19.00
2018-08-23T07:10:14.381Z,17.77
2018-08-23T07:12:43.634Z,14.23
2018-08-23T07:15:12.726Z,12.43
2018-08-23T07:17:41.553Z,25.50
2018-08-23T07:20:17.359Z,15.13
2018-08-23T07:22:46.203Z,18.00
2018-08-23T07:25:16.455Z,25.17
2018-08-23T07:27:45.242Z,13.88
2018-08-23T07:30:16.890Z,14.80
2018-08-23T07:32:46.955Z,16.53
2018-08-23T07:35:20.191Z,17.13
2018-08-23T07:37:50.518Z,11.25
2018-08-23T07:40:21.649Z,12.67
2018-08-23T07:42:51.736Z,25.23
2018-08-23T07:45:21.106Z,18.12
2018-08-23T07:47:52.601Z,15.20
2018-08-23T07:50:21.679Z,20.68
2018-08-23T07:52:51.975Z,14.05
2018-08-23T07:55:20.830Z,14.65
2018-08-23T07:57:49.700Z,9.58
2018-08-23T08:00:30.854Z,15.03
2018-08-23T08:02:59.574Z,10.93
2018-08-23T08:05:29.392Z,20.70
2018-08-23T08:07:58.286Z,13.25
2018-08-23T08:10:32.439Z,17.30
2018-08-23T08:13:01.256Z,14.43
2018-08-23T08:15:30.386Z,14.13
2018-08-23T08:18:10.805Z,19.75
2018-08-23T08:20:39.616Z,16.10
2018-08-23T08:23:08.735Z,19.77
2018-08-23T08:25:37.579Z,18.32
2018-08-23T08:28:10.980Z,13.08
2018-08-23T08:30:43.567Z,15.20
2018-08-23T08:33:20.385Z,18.10
2018-08-23T08:35:49.099Z,10.88
2018-08-23T08:38:17.794Z,26.60
2018-08-23T08:40:47.079Z,17.57
2018-08-23T08:43:15.798Z,16.97
2018-08-23T08:45:45.532Z,15.60
2018-08-23T08:48:29.450Z,10.75
2018-08-23T08:51:14.554Z,17.05
2018-08-23T08:53:44.039Z,17.57
2018-08-23T08:56:13.252Z,12.05
2018-08-23T08:58:42.960Z,14.05
2018-08-23T09:01:11.809Z,11.43
2018-08-23T09:03:41.223Z,10.05
2018-08-23T09:06:11.103Z,13.20
2018-08-23T09:08:40.173Z,16.15
2018-08-23T09:11:08.937Z,18.12
2018-08-23T09:13:43.099Z,9.35
2018-08-23T09:16:12.521Z,10.85
2018-08-23T09:18:43.253Z,8.80
2018-08-23T09:21:11.938Z,10.40
2018-08-23T09:23:40.993Z,17.35
2018-08-23T09:26:10.021Z,12.58
2018-08-23T09:28:39.221Z,11.83
2018-08-23T09:31:08.032Z,14.80
2018-08-23T09:33:36.766Z,15.23
2018-08-23T09:36:05.906Z,22.90
2018-08-23T09:38:34.806Z,16.62
2018-08-23T09:41:03.536Z,14.25
2018-08-23T09:43:33.362Z,12.40
2018-08-23T09:46:02.300Z,13.18
2018-08-23T09:48:30.966Z,15.80
2018-08-23T09:51:00.068Z,13.45
2018-08-23T09:53:28.823Z,15.25
2018-08-23T09:55:57.859Z,16.10
2018-08-23T09:58:31.830Z,8.13
2018-08-23T10:01:05.734Z,11.08
2018-08-23T10:03:39.739Z,17.48
2018-08-23T10:06:14.054Z,12.70
2018-08-23T10:08:48.023Z,12.88
2018-08-23T10:11:21.957Z,12.90
2018-08-23T10:13:55.859Z,12.35
2018-08-23T10:16:29.589Z,16.05
2018-08-23T10:19:01.464Z,11.40
2018-08-23T10:21:35.386Z,16.87
2018-08-23T10:24:16.649Z,13.22
2018-08-23T10:26:45.980Z,8.65
2018-08-23T10:29:15.083Z,10.60
2018-08-23T10:31:44.199Z,11.15
2018-08-23T10:34:13.459Z,8.53
2018-08-23T10:36:42.441Z,8.98
2018-08-23T10:39:13.048Z,8.40
2018-08-23T10:41:41.913Z,9.08
2018-08-23T10:44:10.736Z,16.20
2018-08-23T10:46:44.440Z,12.47
2018-08-23T10:49:13.228Z,11.25
2018-08-23T10:51:42.110Z,9.68
2018-08-23T10:54:11.136Z,12.07
2018-08-23T10:56:40.147Z,8.75
2018-08-23T10:59:09.570Z,11.15
2018-08-23T11:01:38.323Z,13.40
2018-08-23T11:04:08.270Z,12.37
2018-08-23T11:06:38.499Z,9.00
2018-08-23T11:09:12.929Z,10.68
2018-08-23T11:11:42.096Z,9.25
2018-08-23T11:14:16.290Z,10.35
2018-08-23T11:16:50.338Z,10.45
2018-08-23T11:19:24.334Z,8.63
2018-08-23T11:21:53.339Z,15.98
2018-08-23T11:24:22.491Z,7.45
2018-08-23T11:26:51.304Z,16.30
2018-08-23T11:29:22.415Z,7.42
2018-08-23T11:31:51.667Z,11.50
2018-08-23T11:34:20.697Z,14.10
2018-08-23T11:36:49.594Z,8.83
2018-08-23T11:39:18.721Z,10.10
2018-08-23T11:41:47.610Z,9.23
2018-08-23T11:44:16.483Z,10.82
2018-08-23T11:46:45.631Z,10.18
2018-08-23T11:49:14.342Z,7.65
2018-08-23T11:51:42.977Z,7.17
2018-08-23T11:54:11.734Z,21.25
2018-08-23T11:56:40.722Z,7.50
2018-08-23T11:59:09.672Z,11.03
2018-08-23T12:01:38.403Z,11.78
2018-08-23T12:04:07.238Z,7.20
2018-08-23T12:06:36.020Z,10.58
2018-08-23T12:09:06.032Z,10.55
2018-08-23T12:11:35.245Z,14.80
2018-08-23T12:14:04.360Z,5.70
2018-08-23T12:16:33.174Z,8.13
2018-08-23T12:19:02.113Z,7.87
2018-08-23T12:21:31.400Z,7.72
2018-08-23T12:24:00.065Z,6.35
2018-08-23T12:26:28.891Z,10.32
2018-08-23T12:29:02.712Z,8.18
2018-08-23T12:31:31.549Z,9.80
2018-08-23T12:34:03.852Z,8.88
2018-08-23T12:36:38.089Z,9.48
2018-08-23T12:39:14.166Z,8.33
2018-08-23T12:41:48.432Z,6.28
2018-08-23T12:44:18.229Z,12.30
2018-08-23T12:46:47.234Z,9.85
2018-08-23T12:49:16.382Z,8.90
2018-08-23T12:51:45.612Z,12.03
2018-08-23T12:54:14.498Z,9.60
2018-08-23T12:56:43.123Z,11.90
2018-08-23T12:59:11.901Z,8.78
2018-08-23T13:01:40.748Z,6.95
2018-08-23T13:04:09.787Z,9.88
2018-08-23T13:06:38.928Z,8.95
2018-08-23T13:09:07.955Z,11.33
2018-08-23T13:11:36.744Z,12.68
2018-08-23T13:14:05.696Z,11.08
2018-08-23T13:16:34.649Z,13.65
2018-08-23T13:19:03.740Z,14.55
2018-08-23T13:21:32.472Z,7.67
2018-08-23T13:24:01.336Z,13.88
2018-08-23T13:26:35.171Z,14.35
2018-08-23T13:29:03.810Z,7.80
2018-08-23T13:31:32.484Z,10.63
2018-08-23T13:34:01.237Z,7.42
2018-08-23T13:36:30.394Z,10.03
2018-08-23T13:38:59.361Z,13.50
2018-08-23T13:41:28.252Z,8.70
2018-08-23T13:43:57.112Z,10.82
2018-08-23T13:46:26.036Z,6.90
2018-08-23T13:48:55.139Z,11.55
2018-08-23T13:51:24.223Z,8.95
2018-08-23T13:53:53.154Z,10.35
2018-08-23T13:56:22.371Z,12.33
2018-08-23T13:58:51.094Z,7.75
2018-08-23T14:01:22.424Z,10.05
2018-08-23T14:03:51.438Z,7.85
2018-08-23T14:06:20.780Z,10.65
2018-08-23T14:08:50.004Z,10.40
2018-08-23T14:11:18.984Z,7.60
2018-08-23T14:13:48.216Z,7.37
2018-08-23T14:16:17.049Z,7.45
2018-08-23T14:18:46.189Z,6.70
2018-08-23T14:21:15.095Z,6.78
2018-08-23T14:23:43.956Z,6.17
2018-08-23T14:26:12.787Z,9.68
2018-08-23T14:28:41.607Z,9.93
2018-08-23T14:31:10.656Z,8.63
2018-08-23T14:33:39.616Z,9.90
2018-08-23T14:36:08.325Z,6.67
2018-08-23T14:38:37.633Z,7.67
2018-08-23T14:41:06.420Z,7.47
2018-08-23T14:43:35.513Z,10.60
2018-08-23T14:46:09.587Z,7.90
2018-08-23T14:48:39.945Z,10.18
2018-08-23T14:51:09.008Z,12.00
2018-08-23T14:53:37.790Z,8.80
2018-08-23T14:56:11.585Z,9.23
2018-08-23T14:58:40.501Z,6.12
2018-08-23T15:01:09.665Z,6.83
2018-08-23T15:03:38.485Z,7.70
2018-08-23T15:06:07.613Z,10.30
2018-08-23T15:08:52.722Z,7.08
2018-08-23T15:11:21.703Z,10.45
2018-08-23T15:13:50.635Z,10.40
2018-08-23T15:16:19.367Z,12.30
2018-08-23T15:18:48.486Z,14.05
2018-08-23T15:21:17.577Z,8.50
2018-08-23T15:23:46.407Z,11.18
2018-08-23T15:26:15.193Z,9.55
2018-08-23T15:28:44.291Z,9.75
2018-08-23T15:31:13.274Z,8.78
2018-08-23T15:33:41.918Z,8.15
2018-08-23T15:36:10.985Z,8.43
2018-08-23T15:38:39.859Z,8.58
2018-08-23T15:41:08.732Z,6.85
2018-08-23T15:43:37.773Z,13.93
2018-08-23T15:46:06.871Z,10.98
2018-08-23T15:48:35.951Z,7.10
2018-08-23T15:51:05.162Z,9.23
2018-08-23T15:53:33.942Z,11.00
2018-08-23T15:56:02.692Z,8.30
2018-08-23T15:58:31.812Z,8.25
2018-08-23T16:01:01.015Z,7.87
2018-08-23T16:03:29.952Z,10.60
2018-08-23T16:05:58.958Z,14.07
2018-08-23T16:08:28.047Z,9.65
2018-08-23T16:10:57.019Z,18.87
2018-08-23T16:13:25.934Z,14.35
2018-08-23T16:16:00.149Z,13.25
2018-08-23T16:18:34.338Z,16.73
2018-08-23T16:21:03.040Z,8.95
2018-08-23T16:23:31.703Z,12.03
2018-08-23T16:26:00.347Z,8.13
2018-08-23T16:28:29.293Z,9.10
2018-08-23T16:30:58.150Z,12.63
2018-08-23T16:33:26.926Z,9.48
2018-08-23T16:35:55.898Z,7.72
2018-08-23T16:38:25.048Z,12.50
2018-08-23T16:40:53.916Z,8.25
2018-08-23T16:43:22.858Z,12.95
2018-08-23T16:45:51.792Z,13.58
2018-08-23T16:48:20.986Z,9.78
2018-08-23T16:50:49.707Z,12.10
2018-08-23T16:53:18.510Z,12.80
2018-08-23T16:55:47.163Z,10.45
2018-08-23T16:58:16.299Z,13.45
2018-08-23T17:00:45.016Z,17.80
2018-08-23T17:03:13.687Z,8.18
2018-08-23T17:05:42.742Z,13.15
2018-08-23T17:08:11.462Z,14.98
2018-08-23T17:10:40.519Z,11.12
2018-08-23T17:13:13.894Z,9.80
2018-08-23T17:15:47.964Z,8.43
2018-08-23T17:18:17.043Z,7.78
2018-08-23T17:20:45.923Z,12.00
2018-08-23T17:23:14.560Z,16.65
2018-08-23T17:25:43.780Z,11.75
2018-08-23T17:28:12.797Z,17.95
2018-08-23T17:30:42.045Z,14.65
2018-08-23T17:33:11.279Z,14.10
2018-08-23T17:35:40.041Z,13.88
2018-08-23T17:38:09.115Z,10.93
2018-08-23T17:40:38.290Z,17.67
2018-08-23T17:43:07.209Z,12.13
2018-08-23T17:45:36.178Z,10.03
2018-08-23T17:48:05.299Z,16.23
2018-08-23T17:50:34.135Z,16.85
2018-08-23T17:53:02.949Z,21.73
2018-08-23T17:55:31.950Z,25.30
2018-08-23T17:58:00.899Z,13.68
2018-08-23T18:00:29.947Z,29.70
2018-08-23T18:02:58.611Z,24.77
2018-08-23T18:05:27.436Z,19.62
2018-08-23T18:07:56.271Z,21.77
2018-08-23T18:10:25.235Z,27.17
2018-08-23T18:12:54.069Z,30.40
2018-08-23T18:15:27.151Z,35.40
2018-08-23T18:17:56.285Z,21.57
2018-08-23T18:20:25.109Z,19.27
2018-08-23T18:22:53.912Z,10.32
2018-08-23T18:25:22.813Z,15.32
2018-08-23T18:27:51.810Z,19.62
2018-08-23T18:30:21.070Z,12.53
2018-08-23T18:32:49.991Z,13.80
2018-08-23T18:35:18.910Z,11.38
2018-08-23T18:37:47.843Z,12.50
2018-08-23T18:40:16.697Z,17.05
2018-08-23T18:42:46.022Z,13.80
2018-08-23T18:45:15.123Z,16.97
2018-08-23T18:47:44.528Z,14.80
2018-08-23T18:50:13.390Z,15.78
2018-08-23T18:52:42.063Z,22.07
2018-08-23T18:55:10.675Z,17.17
2018-08-23T18:57:39.550Z,10.72
2018-08-23T19:00:08.745Z,14.15
2018-08-23T19:02:37.434Z,11.53
2018-08-23T19:05:06.494Z,15.35
2018-08-23T19:07:42.387Z,14.55
2018-08-23T19:10:11.899Z,20.40
2018-08-23T19:12:40.751Z,14.85
2018-08-23T19:15:09.946Z,11.90
2018-08-23T19:17:41.716Z,14.25
2018-08-23T19:20:11.803Z,10.63
2018-08-23T19:22:40.511Z,14.23
2018-08-23T19:25:10.692Z,15.98
2018-08-23T19:27:39.967Z,9.30
2018-08-23T19:30:09.905Z,11.65
2018-08-23T19:32:39.255Z,12.73
2018-08-23T19:35:08.176Z,11.55
2018-08-23T19:37:37.283Z,12.10
2018-08-23T19:40:06.283Z,14.07
2018-08-23T19:42:35.561Z,13.45
2018-08-23T19:45:04.715Z,13.15
2018-08-23T19:47:38.470Z,10.27
2018-08-23T19:50:08.843Z,14.28
2018-08-23T19:52:37.542Z,12.37
2018-08-23T19:55:07.260Z,8.20
2018-08-23T19:57:36.170Z,12.67
2018-08-23T20:00:05.868Z,8.05
2018-08-23T20:02:34.691Z,8.63
2018-08-23T20:05:03.766Z,7.80
2018-08-23T20:07:32.599Z,11.97
2018-08-23T20:10:01.636Z,8.10
2018-08-23T20:12:30.657Z,10.68
2018-08-23T20:14:59.627Z,11.97
2018-08-23T20:17:28.482Z,14.30
2018-08-23T20:19:57.190Z,7.43
2018-08-23T20:22:25.895Z,17.70
2018-08-23T20:24:55.024Z,7.12
2018-08-23T20:27:23.918Z,9.37
2018-08-23T20:29:52.980Z,11.10
2018-08-23T20:32:22.175Z,8.67
2018-08-23T20:34:51.198Z,7.57
2018-08-23T20:37:20.217Z,7.43
2018-08-23T20:39:49.260Z,10.60
2018-08-23T20:42:18.286Z,9.30
2018-08-23T20:44:47.194Z,8.43
2018-08-23T20:47:15.949Z,10.17
2018-08-23T20:49:44.616Z,10.23
2018-08-23T20:52:13.439Z,6.90
2018-08-23T20:54:45.432Z,8.07
2018-08-23T20:57:15.100Z,6.97
2018-08-23T20:59:44.148Z,6.55
2018-08-23T21:02:13.084Z,6.73
2018-08-23T21:04:42.360Z,6.83
2018-08-23T21:07:11.253Z,7.47
2018-08-23T21:09:40.266Z,8.03
2018-08-23T21:12:09.176Z,7.60
2018-08-23T21:14:38.289Z,7.30
2018-08-23T21:17:07.052Z,5.47
2018-08-23T21:19:35.834Z,8.73
2018-08-23T21:22:04.583Z,7.73
2018-08-23T21:24:33.634Z,10.80
2018-08-23T21:27:02.624Z,8.93
2018-08-23T21:29:31.681Z,8.53
2018-08-23T21:32:00.500Z,6.63
2018-08-23T21:34:29.450Z,9.40
2018-08-23T21:36:58.383Z,10.50
2018-08-23T21:39:27.460Z,8.00
2018-08-23T21:41:56.269Z,8.47
2018-08-23T21:44:25.156Z,9.93
2018-08-23T21:46:53.869Z,7.30
2018-08-23T21:49:22.530Z,8.50
2018-08-23T21:51:51.421Z,7.47
2018-08-23T21:54:20.260Z,6.13
2018-08-23T21:56:49.212Z,12.47
2018-08-23T21:59:18.333Z,6.77
2018-08-23T22:01:47.426Z,7.83
2018-08-23T22:04:16.365Z,6.47
2018-08-23T22:06:45.418Z,5.70
2018-08-23T22:09:14.485Z,6.53
2018-08-23T22:11:43.411Z,6.70
2018-08-23T22:14:12.511Z,6.53
2018-08-23T22:16:41.610Z,6.03
2018-08-23T22:19:10.307Z,6.60
2018-08-23T22:21:39.385Z,8.87
2018-08-23T22:24:08.246Z,7.37
2018-08-23T22:26:37.490Z,7.77
2018-08-23T22:29:06.441Z,5.83
2018-08-23T22:31:35.527Z,12.90
2018-08-23T22:34:04.574Z,7.77
2018-08-23T22:36:33.566Z,9.90
2018-08-23T22:39:02.471Z,6.13
2018-08-23T22:41:31.176Z,9.43
2018-08-23T22:43:59.853Z,6.90
2018-08-23T22:46:28.605Z,9.60
2018-08-23T22:48:57.374Z,6.13
2018-08-23T22:51:26.329Z,4.80
2018-08-23T22:53:55.291Z,7.97
2018-08-23T22:56:24.138Z,5.57
2018-08-23T22:58:52.976Z,7.70
2018-08-23T23:01:22.130Z,6.43
2018-08-23T23:03:56.171Z,6.67
2018-08-23T23:06:25.120Z,6.27
2018-08-23T23:08:54.234Z,6.37
2018-08-23T23:11:23.017Z,9.00
2018-08-23T23:13:51.843Z,5.90
2018-08-23T23:16:20.683Z,8.43
2018-08-23T23:18:49.436Z,5.77
2018-08-23T23:21:18.730Z,6.73
2018-08-23T23:23:47.671Z,4.97
2018-08-23T23:26:16.548Z,6.13
2018-08-23T23:28:45.298Z,8.50
2018-08-23T23:31:14.409Z,6.77
2018-08-23T23:33:43.482Z,5.63
2018-08-23T23:36:12.544Z,10.47
2018-08-23T23:38:41.363Z,8.20
2018-08-23T23:41:10.119Z,6.53
2018-08-23T23:43:39.114Z,6.57
2018-08-23T23:46:07.714Z,9.33
2018-08-23T23:48:36.773Z,10.47
2018-08-23T23:51:06.387Z,10.43
2018-08-23T23:53:35.567Z,8.30
2018-08-23T23:56:04.338Z,5.20
2018-08-23T23:58:33.041Z,9.10
